Russell, KS

04:12 CDT le 02 septembre 2014 (GMT -0500)
Great Bend Municipal | Change Station
CLOSE
Current Station
Aéroport
Location: Great Bend,
Altitude: 1886 ft
Stations météo à proximité

Alt. 1886 ft 38.34 °N, 98.86 °W | Updated 17 minutes ago

Clear
Ciel dégagé
66 ° F
Paraît 66 ° F
N
12
Vent Variable Vent de NE

Aujourd'hui
Haut(e) -- | Bas -- ° F
--% Risque de précip.
Hier
Haut(e) -- | Bas -- ° F
Precip. -- pouce
7:05 AM 8:04 PM
Lune montante, 49% visible
Pression 29.95 pouce
Visibilité 8.0 Miles terrestres
Nuages Ciel dégagé
Point de rosée 63 ° F
Humidité 88%
Précipitations 0.00 pouce
Profondeur de la couche neigeuse Non disponible.
UV 0 sur 12
Pollen 8.60 sur 12
Qualité de l'air Non disponible.
Flu Activity Non disponible.
METAR KGBD 020855Z AUTO 04010KT 8SM CLR 19/17 A2995 RMK AO1 52003

More Conditions Fewer Conditions

Pression 29.95 pouce
Visibilité 8.0 Miles terrestres
Nuages Ciel dégagé
Point de rosée 63 ° F
Humidité 88%
Précipitations 0.00 pouce
Profondeur de la couche neigeuse Non disponible.
UV 0 sur 12
Pollen 8.60 sur 12
Qualité de l'air Non disponible.
Flu Activity Non disponible.
METAR KGBD 020855Z AUTO 04010KT 8SM CLR 19/17 A2995 RMK AO1 52003

More Conditions Fewer Conditions

10-Day Weather Forecast

Almanac

Astronomie

Sep. 02, 2014 Lever Coucher
Temps réel 07:05 CDT 20:04 CDT
Crépuscule civil 06:38 CDT 20:31 CDT
Crépuscule nautique 06:05 CDT 21:03 CDT
Crépuscule astronomique 05:31 CDT 21:37 CDT
Lune 14:47 CDT 00:11 CDT
Durée de lumière visible 13h 53m
Longueur du jour
12h 58m
Tomorrow will be 2m 27s shorter.
Lune montante, 49% of the Moon is Illuminated
Aujourd'hui
Lune montante
Sep 2
Premier quartier
Sep 8
Pleine lune
Sep 15
Dernier quartier
Sep 24
Nouveau

Extrêmes aujourd'hui

State Highs State Lows

Community

WunderPhotos

Upload Photos

1,749,587 Photos téléchargées !

WunderBlogs® & News

Nearby

Épaisseur de neige

Station Depth Altitude
Pas de nouvelles chutes de neige

Activité sismique

Ville Distance Mag. Time & Date
No recent earthquake activity has been reported nearby.
Minimum magnitude displayed is 2.5.

Températures des eaux côtières

Lieu Température
Aucun rapport de station

Stations météo à proximité